Time;durP1;ratioP1;P1;durP2;ratioP2;P2;SDS_P1;SDS_P2;PMS_P1;PMS_P2;Temp;Humidity;BMP_temperature;BMP_pressure;BME280_temperature;BME280_humidity;BME280_pressure;Samples;Min_cycle;Max_cycle;Signal;HPM_P1;HPM_P2
2022/07/14 00:01:32;;;;;;;7.05;1.67;;;11.60;99.90;;;;;;5067786;28;20101;-53
2022/07/14 00:03:59;;;;;;;11.55;2.00;;;11.60;99.90;;;;;;5069520;28;20040;-54
2022/07/14 00:06:25;;;;;;;12.82;2.65;;;11.70;99.90;;;;;;5069150;28;20580;-53
2022/07/14 00:08:51;;;;;;;7.80;1.20;;;11.60;99.90;;;;;;5069988;28;20143;-54
2022/07/14 00:11:17;;;;;;;9.55;1.90;;;11.50;99.90;;;;;;5069136;28;20068;-51
2022/07/14 00:13:42;;;;;;;6.40;1.25;;;11.90;99.90;;;;;;5069421;28;20056;-54
2022/07/14 00:16:08;;;;;;;7.18;1.40;;;11.80;99.90;;;;;;5069466;28;20120;-52
2022/07/14 00:18:34;;;;;;;7.88;1.80;;;11.10;99.90;;;;;;5069313;28;20039;-52
2022/07/14 00:20:59;;;;;;;5.72;1.13;;;10.80;99.90;;;;;;5069342;28;20044;-53
2022/07/14 00:23:25;;;;;;;7.47;1.30;;;10.90;99.90;;;;;;5067167;28;20127;-53
2022/07/14 00:25:52;;;;;;;7.47;1.40;;;11.50;99.90;;;;;;5069456;28;20044;-54
2022/07/14 00:28:17;;;;;;;6.65;1.20;;;11.80;99.90;;;;;;5069156;28;20352;-54
2022/07/14 00:30:45;;;;;;;10.18;1.30;;;11.10;99.90;;;;;;5069467;28;20043;-53
2022/07/14 00:33:10;;;;;;;10.32;1.80;;;11.20;99.90;;;;;;5069373;28;20080;-53
2022/07/14 00:35:37;;;;;;;9.05;1.83;;;;;;;;;;5068856;28;20102;-53
2022/07/14 00:38:05;;;;;;;7.90;1.13;;;10.70;99.90;;;;;;5069286;28;20044;-52
2022/07/14 00:40:31;;;;;;;4.72;1.00;;;;;;;;;;5069037;28;20050;-51
2022/07/14 00:42:57;;;;;;;13.15;2.22;;;10.70;99.90;;;;;;5067837;28;20048;-52
2022/07/14 00:45:26;;;;;;;7.82;1.75;;;;;;;;;;5069353;28;20044;-53
2022/07/14 00:47:52;;;;;;;7.95;1.42;;;;;;;;;;5069515;28;20074;-52
2022/07/14 00:50:19;;;;;;;9.90;1.65;;;;;;;;;;5068998;28;20102;-50
2022/07/14 00:52:46;;;;;;;6.30;1.55;;;;;;;;;;5069055;28;20437;-54
2022/07/14 00:55:14;;;;;;;9.85;1.80;;;;;;;;;;5069251;28;20125;-53
2022/07/14 00:57:40;;;;;;;7.53;1.83;;;;;;;;;;5068891;28;20047;-53
2022/07/14 01:00:08;;;;;;;7.63;1.67;;;;;;;;;;5068827;28;20043;-53
2022/07/14 01:02:34;;;;;;;11.18;2.08;;;;;;;;;;5068286;28;20398;-53
2022/07/14 01:05:00;;;;;;;9.63;1.58;;;;;;;;;;5069029;28;20059;-53
2022/07/14 01:07:27;;;;;;;9.45;1.83;;;;;;;;;;5066913;28;20452;-54
2022/07/14 01:09:53;;;;;;;14.30;2.08;;;;;;;;;;5068268;28;20040;-53
2022/07/14 01:12:19;;;;;;;7.43;1.75;;;;;;;;;;5069021;28;20139;-53
2022/07/14 01:14:45;;;;;;;7.13;1.17;;;;;;;;;;5067841;28;20509;-53
2022/07/14 01:17:11;;;;;;;7.05;1.27;;;;;;;;;;5068255;28;20433;-54
2022/07/14 01:19:38;;;;;;;8.98;2.00;;;;;;;;;;5067880;28;20398;-53
2022/07/14 01:22:04;;;;;;;7.55;1.80;;;;;;;;;;5068469;28;20048;-53
2022/07/14 01:24:30;;;;;;;9.63;2.20;;;;;;;;;;5068191;28;20095;-53
2022/07/14 01:26:57;;;;;;;8.70;1.77;;;10.10;99.90;;;;;;5068401;28;20055;-53
2022/07/14 01:29:23;;;;;;;9.82;2.15;;;;;;;;;;5068103;28;20387;-54
2022/07/14 01:31:50;;;;;;;9.75;2.22;;;;;;;;;;5068173;28;20040;-53
2022/07/14 01:34:16;;;;;;;9.85;2.53;;;;;;;;;;5067974;28;20074;-52
2022/07/14 01:36:42;;;;;;;10.70;2.05;;;;;;;;;;5067715;28;20075;-54
2022/07/14 01:39:08;;;;;;;10.95;2.25;;;;;;;;;;5068056;28;20094;-50
2022/07/14 01:41:34;;;;;;;7.05;1.75;;;;;;;;;;5067657;28;20109;-54
2022/07/14 01:44:01;;;;;;;8.25;2.25;;;;;;;;;;5068093;28;20040;-52
2022/07/14 01:46:27;;;;;;;8.75;1.95;;;;;;;;;;5067329;28;20127;-54
2022/07/14 01:48:53;;;;;;;15.02;2.03;;;;;;;;;;5067887;28;20447;-53
2022/07/14 01:51:20;;;;;;;9.95;2.42;;;;;;;;;;5068013;28;20121;-52
2022/07/14 01:53:46;;;;;;;8.73;2.38;;;9.90;99.90;;;;;;5067772;28;20116;-54
2022/07/14 01:56:12;;;;;;;6.82;1.52;;;10.00;99.90;;;;;;5067855;28;20131;-52
2022/07/14 01:58:38;;;;;;;12.50;2.35;;;9.90;99.90;;;;;;5067781;28;20044;-53
2022/07/14 02:03:54;;;;;;;7.97;2.03;;;9.60;99.90;;;;;;5067571;28;20517;-53
2022/07/14 02:06:20;;;;;;;8.18;2.13;;;9.40;99.90;;;;;;5067309;28;20048;-54
2022/07/14 02:08:45;;;;;;;10.50;2.55;;;9.50;99.90;;;;;;5067599;28;20041;-53
2022/07/14 02:13:56;;;;;;;11.10;2.60;;;9.30;99.90;;;;;;5067460;28;20139;-52
2022/07/14 02:16:21;;;;;;;7.10;2.03;;;9.40;99.90;;;;;;5067666;28;20072;-54
2022/07/14 02:18:47;;;;;;;6.47;1.90;;;9.30;99.90;;;;;;5067587;28;20051;-53
2022/07/14 02:21:13;;;;;;;8.27;1.95;;;9.40;99.90;;;;;;5067346;28;20051;-54
2022/07/14 02:23:38;;;;;;;9.95;2.72;;;10.40;99.90;;;;;;5065820;28;20075;-54
2022/07/14 02:26:13;;;;;;;12.00;2.40;;;10.20;99.90;;;;;;5067115;28;20060;-53
2022/07/14 02:28:40;;;;;;;15.35;3.05;;;9.40;99.90;;;;;;5067169;28;20103;-53
2022/07/14 02:31:06;;;;;;;11.48;2.63;;;9.20;99.90;;;;;;5067520;28;20120;-53
2022/07/14 02:33:32;;;;;;;12.90;2.85;;;9.20;99.90;;;;;;5066889;28;20086;-53
2022/07/14 02:35:58;;;;;;;11.02;2.20;;;9.60;99.90;;;;;;5067352;28;20040;-54
2022/07/14 02:38:24;;;;;;;9.63;2.70;;;9.30;99.90;;;;;;5066935;28;20394;-54
2022/07/14 02:40:49;;;;;;;12.02;2.97;;;9.10;99.90;;;;;;5067048;28;20669;-52
2022/07/14 02:43:15;;;;;;;7.80;2.00;;;9.20;99.90;;;;;;5067286;28;20048;-53
2022/07/14 02:45:40;;;;;;;6.80;1.90;;;9.30;99.90;;;;;;5068818;28;20044;-55
2022/07/14 02:48:07;;;;;;;7.32;2.15;;;9.40;99.90;;;;;;5071306;28;20040;-52
2022/07/14 02:50:32;;;;;;;6.25;1.75;;;10.30;99.90;;;;;;5071009;28;20036;-54
2022/07/14 02:52:58;;;;;;;5.88;1.67;;;9.00;99.90;;;;;;5069848;28;20052;-53
2022/07/14 02:55:24;;;;;;;3.90;1.40;;;9.30;99.90;;;;;;5070734;28;20041;-54
2022/07/14 02:57:50;;;;;;;4.68;1.65;;;9.30;99.90;;;;;;5070721;28;20123;-54
2022/07/14 03:00:17;;;;;;;6.18;1.83;;;9.10;99.90;;;;;;5069871;28;20075;-53
2022/07/14 03:02:42;;;;;;;9.88;3.15;;;9.30;99.90;;;;;;5070814;28;20498;-54
2022/07/14 03:05:08;;;;;;;8.32;2.47;;;9.30;99.90;;;;;;5071213;28;20040;-53
2022/07/14 03:07:34;;;;;;;10.93;2.92;;;9.10;99.90;;;;;;5070906;28;20071;-54
2022/07/14 03:09:59;;;;;;;10.43;2.90;;;9.10;99.90;;;;;;5070789;28;20041;-52
2022/07/14 03:12:25;;;;;;;6.20;2.30;;;10.00;99.90;;;;;;5070878;28;20409;-53
2022/07/14 03:14:51;;;;;;;6.03;2.15;;;9.20;99.90;;;;;;5070339;28;20078;-54
2022/07/14 03:17:17;;;;;;;7.30;2.10;;;9.10;99.90;;;;;;5071294;28;20053;-54
2022/07/14 03:19:43;;;;;;;9.70;2.30;;;9.10;99.90;;;;;;5071002;28;20142;-53
2022/07/14 03:22:09;;;;;;;12.95;2.58;;;9.30;99.90;;;;;;5070920;28;20041;-53
2022/07/14 03:24:34;;;;;;;14.45;2.95;;;9.40;99.90;;;;;;5070740;28;20542;-53
2022/07/14 03:27:00;;;;;;;6.25;3.55;;;9.20;99.90;;;;;;5070509;28;20078;-54
2022/07/14 03:29:27;;;;;;;13.70;3.80;;;10.30;99.90;;;;;;5070694;28;20109;-54
2022/07/14 03:31:54;;;;;;;15.18;3.72;;;9.90;99.90;;;;;;5070575;28;20101;-54
2022/07/14 03:34:19;;;;;;;11.02;4.03;;;9.40;99.90;;;;;;5070575;28;20055;-52
2022/07/14 03:36:45;;;;;;;13.43;4.20;;;9.60;99.90;;;;;;5070096;28;20667;-54
2022/07/14 03:39:11;;;;;;;12.88;3.60;;;9.90;99.90;;;;;;5069908;28;20497;-55
2022/07/14 03:41:36;;;;;;;11.35;3.70;;;11.00;99.90;;;;;;5069992;28;20128;-53
2022/07/14 03:44:02;;;;;;;16.08;4.25;;;9.70;99.90;;;;;;5070397;28;20118;-53
2022/07/14 03:46:28;;;;;;;11.13;4.47;;;9.80;99.90;;;;;;5070238;28;20371;-55
2022/07/14 03:48:54;;;;;;;14.70;4.97;;;10.00;99.90;;;;;;5069645;28;20053;-54
2022/07/14 03:51:19;;;;;;;12.70;4.60;;;9.90;99.90;;;;;;5070098;28;20493;-54
2022/07/14 03:53:45;;;;;;;12.18;4.53;;;10.20;99.90;;;;;;5070105;28;20036;-54
2022/07/14 03:56:11;;;;;;;15.32;4.38;;;10.50;99.90;;;;;;5069215;28;20044;-53
2022/07/14 03:58:36;;;;;;;14.43;5.57;;;10.20;99.90;;;;;;5069103;28;20040;-54
2022/07/14 04:01:03;;;;;;;10.65;4.13;;;11.00;99.90;;;;;;5070107;28;20055;-54
2022/07/14 04:03:28;;;;;;;12.18;4.82;;;10.90;99.90;;;;;;5069888;28;20044;-54
2022/07/14 04:05:54;;;;;;;11.93;4.25;;;11.10;99.90;;;;;;5069640;28;20043;-55
2022/07/14 04:08:20;;;;;;;14.27;4.18;;;10.50;99.90;;;;;;5069758;28;20083;-54
2022/07/14 04:10:45;;;;;;;13.20;4.25;;;10.60;99.90;;;;;;5069082;28;20474;-54
2022/07/14 04:13:11;;;;;;;14.55;4.50;;;10.50;99.90;;;;;;5069683;28;20118;-55
2022/07/14 04:15:40;;;;;;;10.20;4.03;;;10.50;99.90;;;;;;5070007;28;20051;-54
2022/07/14 04:18:06;;;;;;;13.73;4.15;;;10.50;99.90;;;;;;5070047;28;20044;-54
2022/07/14 04:20:32;;;;;;;11.57;3.83;;;10.40;99.90;;;;;;5069939;28;20186;-53
2022/07/14 04:22:57;;;;;;;11.85;4.28;;;10.90;99.90;;;;;;5069159;28;20041;-54
2022/07/14 04:25:23;;;;;;;14.70;3.90;;;10.50;99.90;;;;;;5069123;28;20051;-53
2022/07/14 04:27:49;;;;;;;9.98;3.67;;;10.30;99.90;;;;;;5069135;28;20181;-55
2022/07/14 04:30:15;;;;;;;8.88;3.58;;;10.30;99.90;;;;;;5069513;28;20060;-55
2022/07/14 04:32:40;;;;;;;12.10;3.90;;;10.20;99.90;;;;;;5069252;28;20477;-54
2022/07/14 04:35:07;;;;;;;8.15;3.60;;;10.50;99.90;;;;;;5069785;28;20462;-54
2022/07/14 04:37:34;;;;;;;14.88;3.63;;;10.20;99.90;;;;;;5067603;28;20460;-54
2022/07/14 04:39:59;;;;;;;12.70;3.75;;;10.40;99.90;;;;;;5068978;28;20055;-54
2022/07/14 04:42:25;;;;;;;15.98;4.22;;;10.50;99.90;;;;;;5069030;28;20040;-53
2022/07/14 04:44:51;;;;;;;11.25;3.08;;;10.20;99.90;;;;;;5068884;28;20048;-53
2022/07/14 04:47:17;;;;;;;11.88;3.60;;;10.70;99.90;;;;;;5069052;28;20584;-54
2022/07/14 04:52:27;;;;;;;14.85;4.40;;;10.70;99.90;;;;;;5069492;28;20121;-54
2022/07/14 04:54:53;;;;;;;9.13;4.05;;;10.80;99.90;;;;;;5068810;28;20553;-53
2022/07/14 04:57:19;;;;;;;9.95;3.28;;;11.90;99.90;;;;;;5068926;28;20041;-54
2022/07/14 04:59:45;;;;;;;12.40;3.90;;;12.10;99.90;;;;;;5068544;28;20052;-54
2022/07/14 05:02:11;;;;;;;9.48;3.70;;;11.00;99.90;;;;;;5068620;28;20563;-54
2022/07/14 05:04:37;;;;;;;10.93;3.55;;;11.40;99.90;;;;;;5068741;28;20040;-53
2022/07/14 05:07:03;;;;;;;10.48;3.78;;;11.30;99.90;;;;;;5068285;28;20040;-53
2022/07/14 05:09:33;;;;;;;12.90;3.85;;;11.80;99.90;;;;;;5068197;28;20033;-54
2022/07/14 05:12:02;;;;;;;11.70;3.85;;;12.50;99.90;;;;;;5068216;28;20048;-54
2022/07/14 05:14:29;;;;;;;12.18;3.28;;;11.90;99.90;;;;;;5068258;28;20086;-54
2022/07/14 05:16:55;;;;;;;12.65;3.47;;;12.10;99.90;;;;;;5068105;28;20518;-54
2022/07/14 05:19:21;;;;;;;9.07;3.70;;;12.50;99.90;;;;;;5068068;28;20040;-54
2022/07/14 05:21:48;;;;;;;12.75;3.15;;;12.40;99.90;;;;;;5068145;28;20041;-54
2022/07/14 05:24:16;;;;;;;9.13;3.28;;;12.40;99.90;;;;;;5068174;28;20137;-54
2022/07/14 05:26:41;;;;;;;10.85;2.97;;;12.40;99.90;;;;;;5068441;28;20048;-54
2022/07/14 05:29:07;;;;;;;12.38;3.22;;;12.70;99.90;;;;;;5068071;28;20094;-55
2022/07/14 05:31:33;;;;;;;5.53;1.95;;;13.00;99.90;;;;;;5068195;28;20039;-54
2022/07/14 05:33:59;;;;;;;8.38;2.53;;;13.20;99.90;;;;;;5067749;28;20544;-54
2022/07/14 05:36:25;;;;;;;5.88;2.05;;;13.30;99.90;;;;;;5067715;28;20044;-54
2022/07/14 05:38:52;;;;;;;10.45;2.88;;;13.40;99.90;;;;;;5068383;28;20279;-53
2022/07/14 05:41:19;;;;;;;8.60;2.45;;;13.70;99.90;;;;;;5068216;28;20127;-55
2022/07/14 05:43:46;;;;;;;6.63;1.92;;;14.70;99.90;;;;;;5067536;28;20465;-54
2022/07/14 05:46:13;;;;;;;6.40;2.30;;;14.50;99.90;;;;;;5067536;28;20440;-55
2022/07/14 05:48:39;;;;;;;9.13;1.55;;;16.10;99.90;;;;;;5067640;28;20405;-54
2022/07/14 05:51:06;;;;;;;5.70;1.23;;;16.40;99.90;;;;;;5067532;28;20040;-53
2022/07/14 05:53:32;;;;;;;9.13;1.42;;;18.30;99.90;;;;;;5067816;28;20044;-55
2022/07/14 05:55:58;;;;;;;3.03;0.52;;;19.10;99.90;;;;;;5067806;28;20040;-55
2022/07/14 05:58:25;;;;;;;4.38;1.15;;;;;;;;;;5066234;28;20113;-55
2022/07/14 06:00:50;;;;;;;4.13;0.60;;;18.60;99.90;;;;;;5068130;28;20048;-56
2022/07/14 06:03:18;;;;;;;6.05;0.70;;;18.60;99.90;;;;;;5067719;28;20082;-56
2022/07/14 06:05:44;;;;;;;6.57;0.60;;;18.30;99.90;;;;;;5067603;28;20049;-56
2022/07/14 06:08:10;;;;;;;3.70;0.52;;;18.40;99.90;;;;;;5067467;28;20047;-56
2022/07/14 06:10:36;;;;;;;3.80;0.35;;;18.60;99.90;;;;;;5067004;28;20466;-56
2022/07/14 06:13:03;;;;;;;6.45;0.65;;;18.80;99.90;;;;;;5065659;28;20083;-56
2022/07/14 06:15:29;;;;;;;4.03;0.60;;;19.90;99.90;;;;;;5067192;28;20049;-56
2022/07/14 06:17:55;;;;;;;3.92;0.43;;;19.90;99.90;;;;;;5067246;28;20086;-56
2022/07/14 06:20:21;;;;;;;5.20;0.40;;;20.70;99.90;;;;;;5066754;28;20040;-56
2022/07/14 06:22:48;;;;;;;5.55;0.35;;;22.50;99.90;;;;;;5067517;28;20079;-56
2022/07/14 06:25:14;;;;;;;5.78;0.55;;;24.30;95.20;;;;;;5066912;28;20541;-56
2022/07/14 06:27:40;;;;;;;3.10;0.43;;;24.60;92.60;;;;;;5067094;28;20111;-56
2022/07/14 06:30:07;;;;;;;5.43;0.90;;;25.90;90.50;;;;;;5067022;28;20076;-56
2022/07/14 06:32:33;;;;;;;3.83;0.25;;;27.00;84.90;;;;;;5065235;28;20044;-56
2022/07/14 06:34:58;;;;;;;4.47;0.35;;;28.20;79.40;;;;;;5066737;28;20048;-57
2022/07/14 06:37:24;;;;;;;3.95;0.32;;;29.10;76.60;;;;;;5067306;28;20044;-57
2022/07/14 06:39:51;;;;;;;3.35;0.47;;;30.10;71.70;;;;;;5067107;28;20055;-57
2022/07/14 06:42:17;;;;;;;3.72;0.30;;;31.30;68.90;;;;;;5067518;28;20363;-56
2022/07/14 06:44:42;;;;;;;3.15;0.30;;;32.20;65.60;;;;;;5067208;28;20044;-57
2022/07/14 06:47:08;;;;;;;3.67;0.30;;;32.90;62.40;;;;;;5067275;28;20045;-57
2022/07/14 06:49:34;;;;;;;3.08;0.20;;;33.60;59.70;;;;;;5067063;28;20055;-57
2022/07/14 06:52:00;;;;;;;2.92;0.10;;;34.20;58.40;;;;;;5067420;28;20036;-57
2022/07/14 06:54:26;;;;;;;1.88;0.20;;;34.60;57.00;;;;;;5067466;28;20044;-57
2022/07/14 06:56:52;;;;;;;5.82;0.22;;;34.90;55.80;;;;;;5067411;28;20055;-57
2022/07/14 06:59:17;;;;;;;4.88;0.40;;;35.60;54.40;;;;;;5067176;28;20044;-57
2022/07/14 07:01:43;;;;;;;4.15;0.50;;;35.90;52.70;;;;;;5066090;28;20044;-57
2022/07/14 07:04:09;;;;;;;2.75;0.20;;;36.50;51.10;;;;;;5067295;28;20043;-57
2022/07/14 07:06:43;;;;;;;1.95;0.20;;;37.30;50.50;;;;;;5067384;28;20044;-57
2022/07/14 07:09:09;;;;;;;2.63;0.22;;;36.10;49.10;;;;;;5067019;28;20072;-57
2022/07/14 07:11:35;;;;;;;2.85;0.30;;;36.50;48.80;;;;;;5066406;28;20128;-57
2022/07/14 07:14:01;;;;;;;3.30;0.20;;;35.40;49.80;;;;;;5066427;28;20068;-57
2022/07/14 07:16:28;;;;;;;4.70;0.73;;;34.90;49.20;;;;;;5066098;28;20664;-57
2022/07/14 07:18:54;;;;;;;2.83;0.20;;;35.20;49.30;;;;;;5066346;28;20509;-56
2022/07/14 07:21:20;;;;;;;2.97;0.20;;;36.10;49.70;;;;;;5066422;28;20041;-57
2022/07/14 07:23:50;;;;;;;4.22;0.45;;;36.60;48.50;;;;;;5066930;28;20516;-57
2022/07/14 07:26:17;;;;;;;2.17;0.28;;;35.30;47.80;;;;;;5066065;28;20466;-56
2022/07/14 07:28:44;;;;;;;2.78;0.15;;;35.40;47.10;;;;;;5066185;28;20419;-57
2022/07/14 07:31:10;;;;;;;1.35;0.10;;;36.40;47.70;;;;;;5066764;28;20123;-57
2022/07/14 07:33:35;;;;;;;2.40;0.20;;;37.50;47.30;;;;;;5070145;28;20052;-57
2022/07/14 07:36:01;;;;;;;2.25;0.20;;;36.10;46.60;;;;;;5068909;28;20470;-57
2022/07/14 07:38:27;;;;;;;2.58;0.35;;;34.20;46.50;;;;;;5069479;28;20040;-57
2022/07/14 07:40:54;;;;;;;2.35;0.30;;;32.80;47.20;;;;;;5069713;28;20164;-56
2022/07/14 07:43:23;;;;;;;2.60;0.20;;;31.70;49.00;;;;;;5069656;28;20040;-56
2022/07/14 07:45:49;;;;;;;2.88;0.30;;;32.20;50.30;;;;;;5070002;28;20132;-56
2022/07/14 07:48:16;;;;;;;2.67;0.30;;;33.70;49.80;;;;;;5069821;28;20485;-57
2022/07/14 07:50:43;;;;;;;2.28;0.20;;;34.40;49.00;;;;;;5068134;28;20047;-57
2022/07/14 07:53:09;;;;;;;2.58;0.22;;;33.60;48.60;;;;;;5069723;28;20166;-56
2022/07/14 07:55:35;;;;;;;2.85;0.20;;;32.60;48.00;;;;;;5069234;28;20566;-56
2022/07/14 07:58:01;;;;;;;3.08;0.10;;;31.40;48.80;;;;;;5068470;28;20170;-56
2022/07/14 08:00:27;;;;;;;2.78;0.35;;;30.30;49.50;;;;;;5069851;28;20033;-56
2022/07/14 08:02:54;;;;;;;2.75;0.22;;;29.20;50.70;;;;;;5070617;28;20343;-56
2022/07/14 08:05:22;;;;;;;2.28;0.38;;;28.30;52.40;;;;;;5070045;28;20051;-56
2022/07/14 08:07:48;;;;;;;3.60;0.10;;;29.10;53.40;;;;;;5069834;28;20125;-56
2022/07/14 08:10:14;;;;;;;1.05;0.10;;;30.60;53.10;;;;;;5051122;28;20079;-56
2022/07/14 08:12:41;;;;;;;3.60;0.35;;;32.10;51.70;;;;;;5069615;28;20059;-56
2022/07/14 08:15:07;;;;;;;1.95;0.10;;;33.80;50.80;;;;;;5053439;28;20057;-56
2022/07/14 08:17:33;;;;;;;1.67;0.25;;;33.10;48.90;;;;;;5069739;28;20075;-56
2022/07/14 08:19:59;;;;;;;1.30;0.20;;;32.10;49.00;;;;;;5069034;28;20489;-56
2022/07/14 08:22:26;;;;;;;2.03;0.25;;;31.60;49.40;;;;;;5069084;28;20033;-56
2022/07/14 08:24:53;;;;;;;2.47;0.30;;;30.60;50.30;;;;;;5069142;28;20083;-56
2022/07/14 08:27:19;;;;;;;3.33;0.30;;;31.10;51.20;;;;;;5050626;28;20151;-56
2022/07/14 08:29:44;;;;;;;2.05;0.20;;;31.60;51.30;;;;;;5068480;28;20165;-56
2022/07/14 08:32:10;;;;;;;3.35;0.20;;;32.40;50.90;;;;;;5068734;28;20051;-56
2022/07/14 08:34:37;;;;;;;0.93;0.20;;;33.20;49.00;;;;;;5069009;28;20044;-56
2022/07/14 08:37:05;;;;;;;2.05;0.20;;;34.30;48.50;;;;;;5069093;28;20139;-58
2022/07/14 08:39:31;;;;;;;1.33;0.05;;;35.00;47.10;;;;;;5068946;28;20447;-58
2022/07/14 08:42:01;;;;;;;3.35;0.10;;;34.10;46.40;;;;;;5014549;28;20101;-51
2022/07/14 08:44:28;;;;;;;2.15;0.47;;;33.00;46.50;;;;;;5064744;28;20051;-58
2022/07/14 08:46:55;;;;;;;2.47;0.22;;;31.90;47.60;;;;;;5064625;28;20052;-60
2022/07/14 08:49:21;;;;;;;2.40;0.15;;;32.00;48.70;;;;;;5065374;28;20167;-59
2022/07/14 08:51:49;;;;;;;2.45;0.20;;;32.60;48.70;;;;;;5064522;28;20044;-60
2022/07/14 08:54:16;;;;;;;3.17;0.10;;;33.10;48.30;;;;;;5046565;28;20045;-63
2022/07/14 08:56:42;;;;;;;2.25;0.13;;;33.30;47.10;;;;;;5065132;28;20083;-60
2022/07/14 08:59:09;;;;;;;2.88;0.30;;;33.00;46.30;;;;;;5047234;28;20547;-58
2022/07/14 09:01:36;;;;;;;4.57;1.15;;;32.80;46.20;;;;;;5065179;28;20584;-59
2022/07/14 09:04:02;;;;;;;2.60;0.20;;;32.50;46.80;;;;;;5065478;28;20036;-53
2022/07/14 09:06:50;;;;;;;3.60;0.10;;;32.10;47.40;;;;;;5065303;28;20056;-54
2022/07/14 09:09:18;;;;;;;4.47;0.20;;;31.50;47.90;;;;;;5064944;28;20043;-54
2022/07/14 09:12:01;;;;;;;4.40;0.43;;;31.10;48.70;;;;;;5047455;28;20121;-54
2022/07/14 09:15:44;;;;;;;3.90;0.20;;;31.10;50.20;;;;;;5055668;28;20118;-54
2022/07/14 09:17:18;;;;;;;2.90;0.20;;;31.10;50.10;;;;;;5068092;28;20059;-54
2022/07/14 09:20:03;;;;;;;6.05;0.32;;;31.30;50.10;;;;;;5069260;28;20033;-53
2022/07/14 09:22:32;;;;;;;2.22;0.20;;;31.90;50.80;;;;;;5068543;28;20124;-53
2022/07/14 09:24:58;;;;;;;1.33;0.10;;;32.10;49.80;;;;;;5067990;28;20056;-54
2022/07/14 09:27:25;;;;;;;2.65;0.10;;;32.40;49.40;;;;;;5066202;28;20049;-53
2022/07/14 09:29:55;;;;;;;1.33;0.10;;;32.90;48.80;;;;;;5068260;28;20502;-53
2022/07/14 09:32:41;;;;;;;2.10;0.30;;;32.60;47.90;;;;;;5068042;28;20800;-53
2022/07/14 09:35:07;;;;;;;1.98;0.10;;;32.00;47.50;;;;;;5057240;28;20048;-52
2022/07/14 09:37:33;;;;;;;1.40;0.20;;;31.40;48.60;;;;;;5067759;28;20041;-53
2022/07/14 09:39:59;;;;;;;1.90;0.20;;;30.70;49.50;;;;;;5068694;28;20037;-52
2022/07/14 09:42:50;;;;;;;16.17;3.55;;;30.20;48.30;;;;;;5068130;28;20047;-53
2022/07/14 09:45:18;;;;;;;2.30;0.35;;;30.00;50.70;;;;;;5067425;28;20048;-52
2022/07/14 09:47:56;;;;;;;1.58;0.10;;;29.80;50.70;;;;;;5067676;28;20079;-51
2022/07/14 09:50:57;;;;;;;2.72;0.15;;;29.90;52.40;;;;;;5067366;28;20055;-53
2022/07/14 09:53:32;;;;;;;2.72;0.13;;;30.20;52.70;;;;;;5056513;28;20087;-53
2022/07/14 09:56:09;;;;;;;3.13;0.15;;;30.50;52.00;;;;;;5067330;28;20076;-53
2022/07/14 09:58:54;;;;;;;2.97;0.28;;;30.80;51.70;;;;;;5067409;28;20041;-50
2022/07/14 10:01:21;;;;;;;2.30;0.20;;;30.60;51.30;;;;;;5067543;28;20048;-53
2022/07/14 10:03:48;;;;;;;2.05;0.15;;;30.30;51.20;;;;;;5067764;28;20067;-52
2022/07/14 10:06:15;;;;;;;2.40;0.10;;;29.90;51.30;;;;;;5067759;28;20040;-52
2022/07/14 10:08:45;;;;;;;1.75;0.10;;;29.50;51.80;;;;;;5067667;28;20401;-51
2022/07/14 10:11:12;;;;;;;1.05;0.00;;;29.10;52.60;;;;;;5067503;28;20385;-53
2022/07/14 10:13:39;;;;;;;2.17;0.20;;;28.70;53.10;;;;;;5067421;28;20059;-49
2022/07/14 10:16:05;;;;;;;3.40;0.65;;;28.30;54.20;;;;;;5067625;28;20179;-48
2022/07/14 10:18:32;;;;;;;2.53;0.10;;;27.90;55.10;;;;;;5067499;28;20048;-47
2022/07/14 10:21:00;;;;;;;1.52;0.35;;;27.70;55.20;;;;;;5067391;28;20072;-46
2022/07/14 10:23:28;;;;;;;1.42;0.10;;;27.50;54.70;;;;;;5067059;28;20428;-49
2022/07/14 10:25:57;;;;;;;2.30;0.20;;;27.40;54.20;;;;;;5066921;28;20505;-46
2022/07/14 10:28:23;;;;;;;2.35;0.20;;;27.30;54.80;;;;;;5066960;28;20128;-51
2022/07/14 10:31:14;;;;;;;2.05;0.10;;;27.20;55.50;;;;;;5067325;28;20052;-46
2022/07/14 10:34:05;;;;;;;2.97;0.30;;;27.20;56.20;;;;;;5066684;28;20028;-49
2022/07/14 10:36:47;;;;;;;3.28;0.10;;;27.10;56.40;;;;;;5067040;28;20047;-47
2022/07/14 10:39:37;;;;;;;3.47;0.20;;;27.00;56.60;;;;;;5067230;28;20119;-48
2022/07/14 10:42:03;;;;;;;2.47;0.10;;;27.10;57.10;;;;;;5066600;28;20036;-50
2022/07/14 10:44:31;;;;;;;2.85;0.10;;;27.10;57.10;;;;;;5066867;28;20059;-48
2022/07/14 10:47:15;;;;;;;2.90;0.20;;;27.30;56.70;;;;;;5066862;28;20375;-47
2022/07/14 10:50:01;;;;;;;1.38;0.10;;;27.60;57.10;;;;;;5066578;28;20037;-51
2022/07/14 10:52:32;;;;;;;3.17;0.10;;;27.60;56.20;;;;;;5066569;28;20115;-47
2022/07/14 10:55:24;;;;;;;4.28;0.43;;;27.40;56.70;;;;;;5067171;28;20044;-46
2022/07/14 10:58:18;;;;;;;1.95;0.10;;;27.40;52.60;;;;;;5065571;28;20048;-48
2022/07/14 11:00:44;;;;;;;2.00;0.10;;;27.50;56.30;;;;;;5066147;28;20059;-48
2022/07/14 11:03:26;;;;;;;0.85;0.10;;;27.50;55.80;;;;;;5066575;28;20057;-48
2022/07/14 11:06:05;;;;;;;4.25;0.30;;;27.30;55.80;;;;;;5067530;28;20051;-47
2022/07/14 11:08:31;;;;;;;2.55;0.13;;;27.10;56.90;;;;;;5070621;28;20103;-48
2022/07/14 11:10:59;;;;;;;2.58;0.10;;;26.90;57.10;;;;;;5070181;28;20363;-47
2022/07/14 11:13:25;;;;;;;2.50;0.20;;;26.70;57.40;;;;;;5070354;28;20404;-48
2022/07/14 11:16:02;;;;;;;1.45;0.10;;;26.50;58.00;;;;;;5070559;28;20063;-49
2022/07/14 11:18:36;;;;;;;3.28;0.20;;;26.30;58.50;;;;;;5070635;28;20075;-50
2022/07/14 11:21:13;;;;;;;2.50;0.10;;;26.10;59.00;;;;;;5071362;28;20044;-48
2022/07/14 11:23:51;;;;;;;4.68;0.70;;;25.90;59.70;;;;;;5069527;28;20048;-47
2022/07/14 11:26:32;;;;;;;3.10;0.30;;;25.70;59.70;;;;;;5070760;28;20501;-48
2022/07/14 11:28:58;;;;;;;2.03;0.10;;;25.50;60.60;;;;;;5070417;28;20071;-46
2022/07/14 11:31:24;;;;;;;1.90;0.13;;;25.40;60.80;;;;;;5070715;28;20044;-50
2022/07/14 11:36:38;;;;;;;1.25;0.20;;;25.20;61.60;;;;;;5070592;28;20462;-47
2022/07/14 11:39:37;;;;;;;3.38;0.35;;;25.00;61.70;;;;;;5070166;28;20094;-46
2022/07/14 11:42:09;;;;;;;2.50;0.55;;;24.70;62.00;;;;;;5058213;28;20313;-49
2022/07/14 11:44:40;;;;;;;2.22;0.10;;;24.50;62.60;;;;;;5069943;28;20048;-50
2022/07/14 11:47:18;;;;;;;2.47;0.10;;;24.40;63.40;;;;;;5070260;28;20583;-48
2022/07/14 11:50:13;;;;;;;2.50;0.20;;;24.30;64.50;;;;;;5069896;28;20486;-47
2022/07/14 11:52:40;;;;;;;2.83;0.20;;;24.30;64.20;;;;;;5069262;28;20055;-50
2022/07/14 11:55:09;;;;;;;1.35;0.20;;;24.20;63.60;;;;;;5069737;28;20116;-47
2022/07/14 11:57:35;;;;;;;2.10;0.13;;;24.20;63.60;;;;;;5069805;28;20076;-48
2022/07/14 12:00:09;;;;;;;3.53;0.15;;;24.10;64.40;;;;;;5070126;28;20608;-47
2022/07/14 12:02:56;;;;;;;2.38;0.17;;;24.10;64.40;;;;;;5069690;28;20044;-46
2022/07/14 12:05:23;;;;;;;2.03;0.10;;;24.10;64.70;;;;;;5069706;28;20040;-49
2022/07/14 12:07:50;;;;;;;2.78;0.28;;;24.20;65.20;;;;;;5069546;28;20049;-49
2022/07/14 12:10:36;;;;;;;2.35;0.17;;;24.20;65.60;;;;;;5068907;28;20040;-48
2022/07/14 12:13:03;;;;;;;3.60;0.40;;;24.30;66.00;;;;;;5069148;28;20044;-46
2022/07/14 12:15:30;;;;;;;2.20;0.10;;;24.40;66.50;;;;;;5069412;28;20040;-47
2022/07/14 12:17:56;;;;;;;2.78;0.10;;;24.50;66.50;;;;;;5067995;28;20117;-46
2022/07/14 12:20:24;;;;;;;1.45;0.28;;;24.60;65.00;;;;;;5069522;28;20040;-47
2022/07/14 12:22:55;;;;;;;2.05;0.10;;;24.80;64.70;;;;;;5069271;28;20051;-47
2022/07/14 12:25:28;;;;;;;1.90;0.17;;;25.00;65.40;;;;;;5069261;28;20059;-48
2022/07/14 12:27:55;;;;;;;2.40;0.10;;;25.00;64.90;;;;;;5068989;28;20049;-47
2022/07/14 12:30:21;;;;;;;2.53;0.20;;;24.90;64.40;;;;;;5069387;28;20129;-46
2022/07/14 12:32:54;;;;;;;2.28;0.30;;;24.80;63.80;;;;;;5068973;28;20094;-47
2022/07/14 12:35:23;;;;;;;2.63;0.30;;;24.50;63.90;;;;;;5069339;28;20060;-47
2022/07/14 12:37:51;;;;;;;3.00;0.22;;;24.30;64.50;;;;;;5069212;28;20036;-47
2022/07/14 12:40:18;;;;;;;1.33;0.10;;;24.20;64.40;;;;;;5069282;28;20158;-46
2022/07/14 12:42:44;;;;;;;2.92;0.20;;;24.10;64.60;;;;;;5068965;28;20491;-48
2022/07/14 12:45:10;;;;;;;3.13;0.20;;;24.10;65.00;;;;;;5068927;28;20157;-47
2022/07/14 12:47:56;;;;;;;1.45;0.38;;;24.20;64.70;;;;;;5069358;28;20091;-49
2022/07/14 12:50:25;;;;;;;3.95;0.30;;;24.40;64.80;;;;;;5069308;28;20045;-47
2022/07/14 12:52:53;;;;;;;2.55;0.20;;;24.40;64.30;;;;;;5068932;28;20434;-48
2022/07/14 12:55:34;;;;;;;3.97;0.30;;;24.30;64.40;;;;;;5069146;28;20036;-48
2022/07/14 12:58:04;;;;;;;2.28;0.08;;;24.50;64.10;;;;;;5068948;28;20066;-48
2022/07/14 13:00:34;;;;;;;3.60;0.30;;;24.60;64.60;;;;;;5068792;28;20463;-51
2022/07/14 13:03:18;;;;;;;3.58;0.20;;;24.40;63.60;;;;;;5068728;28;20052;-50
2022/07/14 13:05:55;;;;;;;1.70;0.10;;;24.20;63.20;;;;;;5068607;28;20067;-48
2022/07/14 13:08:39;;;;;;;1.55;0.20;;;23.90;62.90;;;;;;5068134;28;20394;-49
2022/07/14 13:11:10;;;;;;;1.67;0.10;;;23.50;64.70;;;;;;5066924;28;20052;-48
2022/07/14 13:13:39;;;;;;;2.25;0.20;;;23.20;65.00;;;;;;5068098;28;20053;-47